sensor_id;sensor_type;location;lat;lon;timestamp;temperature;humidity
21772;DHT22;11047;47.904;8.110;2023-03-20T00:00:27;3.70;99.90
21772;DHT22;11047;47.904;8.110;2023-03-20T00:02:55;3.70;99.90
21772;DHT22;11047;47.904;8.110;2023-03-20T00:05:23;4.40;99.90
21772;DHT22;11047;47.904;8.110;2023-03-20T00:07:52;3.70;99.90
21772;DHT22;11047;47.904;8.110;2023-03-20T00:10:20;3.70;99.90
21772;DHT22;11047;47.904;8.110;2023-03-20T00:12:48;3.80;99.90
21772;DHT22;11047;47.904;8.110;2023-03-20T00:15:24;3.80;99.90
21772;DHT22;11047;47.904;8.110;2023-03-20T00:17:52;3.70;99.90
21772;DHT22;11047;47.904;8.110;2023-03-20T00:20:19;3.70;99.90
21772;DHT22;11047;47.904;8.110;2023-03-20T00:22:46;3.80;99.90
21772;DHT22;11047;47.904;8.110;2023-03-20T00:25:16;3.70;99.90
21772;DHT22;11047;47.904;8.110;2023-03-20T00:27:43;3.70;99.90
21772;DHT22;11047;47.904;8.110;2023-03-20T00:30:22;3.70;99.90
21772;DHT22;11047;47.904;8.110;2023-03-20T00:32:51;3.70;99.90
21772;DHT22;11047;47.904;8.110;2023-03-20T00:35:20;3.80;99.90
21772;DHT22;11047;47.904;8.110;2023-03-20T00:37:49;4.30;99.90
21772;DHT22;11047;47.904;8.110;2023-03-20T00:40:17;4.10;99.90
21772;DHT22;11047;47.904;8.110;2023-03-20T00:42:45;3.80;99.90
21772;DHT22;11047;47.904;8.110;2023-03-20T00:45:15;3.80;99.90
21772;DHT22;11047;47.904;8.110;2023-03-20T00:47:43;3.80;99.90
21772;DHT22;11047;47.904;8.110;2023-03-20T00:50:15;3.80;99.90
21772;DHT22;11047;47.904;8.110;2023-03-20T00:52:42;3.80;99.90
21772;DHT22;11047;47.904;8.110;2023-03-20T00:55:09;3.70;99.90
21772;DHT22;11047;47.904;8.110;2023-03-20T00:57:41;3.80;99.90
21772;DHT22;11047;47.904;8.110;2023-03-20T01:00:19;3.90;99.90
21772;DHT22;11047;47.904;8.110;2023-03-20T01:02:48;4.90;99.90
21772;DHT22;11047;47.904;8.110;2023-03-20T01:05:15;3.90;99.90
21772;DHT22;11047;47.904;8.110;2023-03-20T01:07:42;3.90;99.90
21772;DHT22;11047;47.904;8.110;2023-03-20T01:10:11;4.00;99.90
21772;DHT22;11047;47.904;8.110;2023-03-20T01:12:40;3.90;99.90
21772;DHT22;11047;47.904;8.110;2023-03-20T01:15:19;4.20;99.90
21772;DHT22;11047;47.904;8.110;2023-03-20T01:17:47;4.00;99.90
21772;DHT22;11047;47.904;8.110;2023-03-20T01:20:16;4.10;99.90
21772;DHT22;11047;47.904;8.110;2023-03-20T01:22:43;4.10;99.90
21772;DHT22;11047;47.904;8.110;2023-03-20T01:25:10;4.10;99.90
21772;DHT22;11047;47.904;8.110;2023-03-20T01:27:39;4.10;99.90
21772;DHT22;11047;47.904;8.110;2023-03-20T01:30:18;5.00;99.90
21772;DHT22;11047;47.904;8.110;2023-03-20T01:32:45;4.20;99.90
21772;DHT22;11047;47.904;8.110;2023-03-20T01:35:14;4.30;99.90
21772;DHT22;11047;47.904;8.110;2023-03-20T01:37:41;4.30;99.90
21772;DHT22;11047;47.904;8.110;2023-03-20T01:42:55;4.30;99.90
21772;DHT22;11047;47.904;8.110;2023-03-20T01:45:25;4.30;99.90
21772;DHT22;11047;47.904;8.110;2023-03-20T01:47:54;4.90;99.90
21772;DHT22;11047;47.904;8.110;2023-03-20T01:50:28;4.30;99.90
21772;DHT22;11047;47.904;8.110;2023-03-20T01:53:03;4.20;99.90
21772;DHT22;11047;47.904;8.110;2023-03-20T01:55:32;4.30;99.90
21772;DHT22;11047;47.904;8.110;2023-03-20T01:58:03;4.30;99.90
21772;DHT22;11047;47.904;8.110;2023-03-20T02:00:33;4.40;99.90
21772;DHT22;11047;47.904;8.110;2023-03-20T02:03:02;4.40;99.90
21772;DHT22;11047;47.904;8.110;2023-03-20T02:05:30;4.40;99.90
21772;DHT22;11047;47.904;8.110;2023-03-20T02:08:04;4.50;99.90
21772;DHT22;11047;47.904;8.110;2023-03-20T02:10:36;4.50;99.90
21772;DHT22;11047;47.904;8.110;2023-03-20T02:13:05;4.40;99.90
21772;DHT22;11047;47.904;8.110;2023-03-20T02:15:33;4.40;99.90
21772;DHT22;11047;47.904;8.110;2023-03-20T02:18:01;4.40;99.90
21772;DHT22;11047;47.904;8.110;2023-03-20T02:20:35;4.30;99.90
21772;DHT22;11047;47.904;8.110;2023-03-20T02:26:20;4.40;99.90
21772;DHT22;11047;47.904;8.110;2023-03-20T02:35:03;4.60;99.90
21772;DHT22;11047;47.904;8.110;2023-03-20T02:37:52;4.70;99.90
21772;DHT22;11047;47.904;8.110;2023-03-20T02:40:28;4.70;99.90
21772;DHT22;11047;47.904;8.110;2023-03-20T02:43:03;4.70;99.90
21772;DHT22;11047;47.904;8.110;2023-03-20T02:45:45;5.00;99.90
21772;DHT22;11047;47.904;8.110;2023-03-20T02:48:19;4.90;99.90
21772;DHT22;11047;47.904;8.110;2023-03-20T02:50:50;4.90;99.90
21772;DHT22;11047;47.904;8.110;2023-03-20T02:53:31;4.90;99.90
21772;DHT22;11047;47.904;8.110;2023-03-20T02:56:09;4.90;99.90
21772;DHT22;11047;47.904;8.110;2023-03-20T02:58:42;5.60;99.90
21772;DHT22;11047;47.904;8.110;2023-03-20T03:01:13;5.00;99.90
21772;DHT22;11047;47.904;8.110;2023-03-20T03:03:44;5.00;99.90
21772;DHT22;11047;47.904;8.110;2023-03-20T03:06:16;5.30;99.90
21772;DHT22;11047;47.904;8.110;2023-03-20T03:08:48;5.10;99.90
21772;DHT22;11047;47.904;8.110;2023-03-20T03:11:16;5.80;99.90
21772;DHT22;11047;47.904;8.110;2023-03-20T03:13:46;5.90;99.90
21772;DHT22;11047;47.904;8.110;2023-03-20T03:16:18;5.90;99.90
21772;DHT22;11047;47.904;8.110;2023-03-20T03:18:48;5.20;99.90
21772;DHT22;11047;47.904;8.110;2023-03-20T03:21:17;5.10;99.90
21772;DHT22;11047;47.904;8.110;2023-03-20T03:23:48;5.50;99.90
21772;DHT22;11047;47.904;8.110;2023-03-20T03:26:20;5.00;99.90
21772;DHT22;11047;47.904;8.110;2023-03-20T03:28:50;5.00;99.90
21772;DHT22;11047;47.904;8.110;2023-03-20T03:31:18;5.40;99.90
21772;DHT22;11047;47.904;8.110;2023-03-20T03:33:49;5.20;99.90
21772;DHT22;11047;47.904;8.110;2023-03-20T03:36:21;5.10;99.90
21772;DHT22;11047;47.904;8.110;2023-03-20T03:38:56;5.20;99.90
21772;DHT22;11047;47.904;8.110;2023-03-20T03:41:25;5.20;99.90
21772;DHT22;11047;47.904;8.110;2023-03-20T03:43:59;5.60;99.90
21772;DHT22;11047;47.904;8.110;2023-03-20T03:46:36;5.20;99.90
21772;DHT22;11047;47.904;8.110;2023-03-20T03:49:07;5.20;99.90
21772;DHT22;11047;47.904;8.110;2023-03-20T03:51:38;5.20;99.90
21772;DHT22;11047;47.904;8.110;2023-03-20T03:54:11;5.20;99.90
21772;DHT22;11047;47.904;8.110;2023-03-20T03:56:41;5.20;99.90
21772;DHT22;11047;47.904;8.110;2023-03-20T03:59:14;5.20;99.90
21772;DHT22;11047;47.904;8.110;2023-03-20T04:01:43;5.20;99.90
21772;DHT22;11047;47.904;8.110;2023-03-20T04:04:14;5.70;99.90
21772;DHT22;11047;47.904;8.110;2023-03-20T04:06:41;5.20;99.90
21772;DHT22;11047;47.904;8.110;2023-03-20T04:09:09;5.30;99.90
21772;DHT22;11047;47.904;8.110;2023-03-20T04:11:36;5.20;99.90
21772;DHT22;11047;47.904;8.110;2023-03-20T04:14:03;5.30;99.90
21772;DHT22;11047;47.904;8.110;2023-03-20T04:16:30;5.30;99.90
21772;DHT22;11047;47.904;8.110;2023-03-20T04:18:57;5.30;99.90
21772;DHT22;11047;47.904;8.110;2023-03-20T04:21:24;5.30;99.90
21772;DHT22;11047;47.904;8.110;2023-03-20T04:23:51;5.30;99.90
21772;DHT22;11047;47.904;8.110;2023-03-20T04:26:19;5.20;99.90
21772;DHT22;11047;47.904;8.110;2023-03-20T04:28:46;5.20;99.90
21772;DHT22;11047;47.904;8.110;2023-03-20T04:31:13;5.20;99.90
21772;DHT22;11047;47.904;8.110;2023-03-20T04:33:40;5.20;99.90
21772;DHT22;11047;47.904;8.110;2023-03-20T04:36:08;5.20;99.90
21772;DHT22;11047;47.904;8.110;2023-03-20T04:38:35;5.30;99.90
21772;DHT22;11047;47.904;8.110;2023-03-20T04:41:02;5.80;99.90
21772;DHT22;11047;47.904;8.110;2023-03-20T04:43:31;5.30;99.90
21772;DHT22;11047;47.904;8.110;2023-03-20T04:45:58;5.30;99.90
21772;DHT22;11047;47.904;8.110;2023-03-20T04:48:25;5.80;99.90
21772;DHT22;11047;47.904;8.110;2023-03-20T04:50:52;5.30;99.90
21772;DHT22;11047;47.904;8.110;2023-03-20T04:53:19;5.30;99.90
21772;DHT22;11047;47.904;8.110;2023-03-20T04:55:46;5.40;99.90
21772;DHT22;11047;47.904;8.110;2023-03-20T04:58:14;5.40;99.90
21772;DHT22;11047;47.904;8.110;2023-03-20T05:00:42;5.40;99.90
21772;DHT22;11047;47.904;8.110;2023-03-20T05:03:09;5.40;99.90
21772;DHT22;11047;47.904;8.110;2023-03-20T05:05:36;5.40;99.90
21772;DHT22;11047;47.904;8.110;2023-03-20T05:08:03;5.40;99.90
21772;DHT22;11047;47.904;8.110;2023-03-20T05:10:31;5.40;99.90
21772;DHT22;11047;47.904;8.110;2023-03-20T05:12:58;5.40;99.90
21772;DHT22;11047;47.904;8.110;2023-03-20T05:15:25;5.40;99.90
21772;DHT22;11047;47.904;8.110;2023-03-20T05:17:53;5.70;99.90
21772;DHT22;11047;47.904;8.110;2023-03-20T05:20:20;5.40;99.90
21772;DHT22;11047;47.904;8.110;2023-03-20T05:22:48;5.40;99.90
21772;DHT22;11047;47.904;8.110;2023-03-20T05:25:16;5.40;99.90
21772;DHT22;11047;47.904;8.110;2023-03-20T05:27:43;5.40;99.90
21772;DHT22;11047;47.904;8.110;2023-03-20T05:30:11;6.10;99.90
21772;DHT22;11047;47.904;8.110;2023-03-20T05:32:38;5.40;99.90
21772;DHT22;11047;47.904;8.110;2023-03-20T05:35:08;5.40;99.90
21772;DHT22;11047;47.904;8.110;2023-03-20T05:37:35;5.30;99.90
21772;DHT22;11047;47.904;8.110;2023-03-20T05:40:03;5.30;99.90
21772;DHT22;11047;47.904;8.110;2023-03-20T05:42:30;5.30;99.90
21772;DHT22;11047;47.904;8.110;2023-03-20T05:44:57;5.40;99.90
21772;DHT22;11047;47.904;8.110;2023-03-20T05:47:24;5.40;99.90
21772;DHT22;11047;47.904;8.110;2023-03-20T05:49:51;5.40;99.90
21772;DHT22;11047;47.904;8.110;2023-03-20T05:52:19;5.40;99.90
21772;DHT22;11047;47.904;8.110;2023-03-20T05:54:46;5.40;99.90
21772;DHT22;11047;47.904;8.110;2023-03-20T05:57:13;5.40;99.90
21772;DHT22;11047;47.904;8.110;2023-03-20T05:59:42;5.90;99.90
21772;DHT22;11047;47.904;8.110;2023-03-20T06:02:09;5.50;99.90
21772;DHT22;11047;47.904;8.110;2023-03-20T06:04:35;5.50;99.90
21772;DHT22;11047;47.904;8.110;2023-03-20T06:07:03;5.50;99.90
21772;DHT22;11047;47.904;8.110;2023-03-20T06:09:32;5.50;99.90
21772;DHT22;11047;47.904;8.110;2023-03-20T06:11:59;5.60;99.90
21772;DHT22;11047;47.904;8.110;2023-03-20T06:14:26;5.50;99.90
21772;DHT22;11047;47.904;8.110;2023-03-20T06:16:53;5.70;99.90
21772;DHT22;11047;47.904;8.110;2023-03-20T06:19:21;5.50;99.90
21772;DHT22;11047;47.904;8.110;2023-03-20T06:21:48;5.70;99.90
21772;DHT22;11047;47.904;8.110;2023-03-20T06:24:15;5.50;99.90
21772;DHT22;11047;47.904;8.110;2023-03-20T06:26:44;5.60;99.90
21772;DHT22;11047;47.904;8.110;2023-03-20T06:29:11;5.60;99.90
21772;DHT22;11047;47.904;8.110;2023-03-20T06:31:38;6.10;99.90
21772;DHT22;11047;47.904;8.110;2023-03-20T06:34:05;6.30;99.90
21772;DHT22;11047;47.904;8.110;2023-03-20T06:36:32;5.70;99.90
21772;DHT22;11047;47.904;8.110;2023-03-20T06:38:59;6.20;99.90
21772;DHT22;11047;47.904;8.110;2023-03-20T06:41:26;5.70;99.90
21772;DHT22;11047;47.904;8.110;2023-03-20T06:43:54;5.70;99.90
21772;DHT22;11047;47.904;8.110;2023-03-20T06:46:21;5.70;99.90
21772;DHT22;11047;47.904;8.110;2023-03-20T06:48:48;5.70;99.90
21772;DHT22;11047;47.904;8.110;2023-03-20T06:51:15;5.70;99.90
21772;DHT22;11047;47.904;8.110;2023-03-20T06:53:42;5.70;99.90
21772;DHT22;11047;47.904;8.110;2023-03-20T06:56:09;5.80;99.90
21772;DHT22;11047;47.904;8.110;2023-03-20T06:58:36;5.80;99.90
21772;DHT22;11047;47.904;8.110;2023-03-20T07:01:09;5.90;99.90
21772;DHT22;11047;47.904;8.110;2023-03-20T07:04:02;6.00;99.90
21772;DHT22;11047;47.904;8.110;2023-03-20T07:06:29;6.10;99.90
21772;DHT22;11047;47.904;8.110;2023-03-20T07:08:58;6.30;99.90
21772;DHT22;11047;47.904;8.110;2023-03-20T07:11:26;6.30;99.90
21772;DHT22;11047;47.904;8.110;2023-03-20T07:13:53;6.50;99.90
21772;DHT22;11047;47.904;8.110;2023-03-20T07:16:21;6.40;99.90
21772;DHT22;11047;47.904;8.110;2023-03-20T07:18:48;6.90;99.90
21772;DHT22;11047;47.904;8.110;2023-03-20T07:21:18;6.80;99.90
21772;DHT22;11047;47.904;8.110;2023-03-20T07:23:45;6.90;99.90
21772;DHT22;11047;47.904;8.110;2023-03-20T07:26:12;6.70;99.90
21772;DHT22;11047;47.904;8.110;2023-03-20T07:28:39;6.70;99.90
21772;DHT22;11047;47.904;8.110;2023-03-20T07:31:06;6.70;99.90
21772;DHT22;11047;47.904;8.110;2023-03-20T07:33:34;6.50;99.90
21772;DHT22;11047;47.904;8.110;2023-03-20T07:36:01;6.60;99.90
21772;DHT22;11047;47.904;8.110;2023-03-20T07:38:28;6.50;99.90
21772;DHT22;11047;47.904;8.110;2023-03-20T07:40:55;7.00;99.90
21772;DHT22;11047;47.904;8.110;2023-03-20T07:43:48;6.50;99.90
21772;DHT22;11047;47.904;8.110;2023-03-20T07:46:15;6.50;99.90
21772;DHT22;11047;47.904;8.110;2023-03-20T07:48:43;6.40;99.90
21772;DHT22;11047;47.904;8.110;2023-03-20T07:51:10;6.60;99.90
21772;DHT22;11047;47.904;8.110;2023-03-20T07:53:37;6.70;99.90
21772;DHT22;11047;47.904;8.110;2023-03-20T07:56:04;6.70;99.90
21772;DHT22;11047;47.904;8.110;2023-03-20T07:58:31;6.80;99.90
21772;DHT22;11047;47.904;8.110;2023-03-20T08:00:58;6.70;99.90
21772;DHT22;11047;47.904;8.110;2023-03-20T08:03:25;6.60;99.90
21772;DHT22;11047;47.904;8.110;2023-03-20T08:05:53;6.90;99.90
21772;DHT22;11047;47.904;8.110;2023-03-20T08:08:20;6.70;99.90
21772;DHT22;11047;47.904;8.110;2023-03-20T08:10:47;6.80;99.90
21772;DHT22;11047;47.904;8.110;2023-03-20T08:13:14;6.70;99.90
21772;DHT22;11047;47.904;8.110;2023-03-20T08:15:41;6.90;99.90
21772;DHT22;11047;47.904;8.110;2023-03-20T08:18:08;6.70;99.90
21772;DHT22;11047;47.904;8.110;2023-03-20T08:20:35;6.80;99.90
21772;DHT22;11047;47.904;8.110;2023-03-20T08:23:03;6.70;99.90
21772;DHT22;11047;47.904;8.110;2023-03-20T08:25:30;6.80;99.90
21772;DHT22;11047;47.904;8.110;2023-03-20T08:27:58;6.80;99.90
21772;DHT22;11047;47.904;8.110;2023-03-20T08:30:26;6.90;99.90
21772;DHT22;11047;47.904;8.110;2023-03-20T08:32:53;6.90;99.90
21772;DHT22;11047;47.904;8.110;2023-03-20T08:35:20;7.00;99.90
21772;DHT22;11047;47.904;8.110;2023-03-20T08:37:47;7.10;99.90
21772;DHT22;11047;47.904;8.110;2023-03-20T08:40:15;7.10;99.90
21772;DHT22;11047;47.904;8.110;2023-03-20T08:42:42;6.90;99.90
21772;DHT22;11047;47.904;8.110;2023-03-20T08:45:10;6.80;99.90
21772;DHT22;11047;47.904;8.110;2023-03-20T08:47:37;6.80;99.90
21772;DHT22;11047;47.904;8.110;2023-03-20T08:50:05;7.40;99.90
21772;DHT22;11047;47.904;8.110;2023-03-20T08:52:33;6.90;99.90
21772;DHT22;11047;47.904;8.110;2023-03-20T08:55:00;6.90;99.90
21772;DHT22;11047;47.904;8.110;2023-03-20T08:57:28;6.90;99.90
21772;DHT22;11047;47.904;8.110;2023-03-20T08:59:55;6.80;99.90
21772;DHT22;11047;47.904;8.110;2023-03-20T09:02:22;6.90;99.90
21772;DHT22;11047;47.904;8.110;2023-03-20T09:04:49;6.80;99.90
21772;DHT22;11047;47.904;8.110;2023-03-20T09:07:16;7.40;99.90
21772;DHT22;11047;47.904;8.110;2023-03-20T09:09:43;7.10;99.90
21772;DHT22;11047;47.904;8.110;2023-03-20T09:12:10;7.10;99.90
21772;DHT22;11047;47.904;8.110;2023-03-20T09:14:38;7.30;99.90
21772;DHT22;11047;47.904;8.110;2023-03-20T09:17:05;7.50;99.90
21772;DHT22;11047;47.904;8.110;2023-03-20T09:19:32;8.10;99.90
21772;DHT22;11047;47.904;8.110;2023-03-20T09:22:00;8.20;99.90
21772;DHT22;11047;47.904;8.110;2023-03-20T09:24:26;8.40;99.90
21772;DHT22;11047;47.904;8.110;2023-03-20T09:26:54;8.00;99.90
21772;DHT22;11047;47.904;8.110;2023-03-20T09:29:21;8.30;99.90
21772;DHT22;11047;47.904;8.110;2023-03-20T09:31:49;8.50;99.90
21772;DHT22;11047;47.904;8.110;2023-03-20T09:34:16;8.70;99.90
21772;DHT22;11047;47.904;8.110;2023-03-20T09:36:43;8.70;99.90
21772;DHT22;11047;47.904;8.110;2023-03-20T09:39:10;8.70;99.90
21772;DHT22;11047;47.904;8.110;2023-03-20T09:41:37;8.70;99.90
21772;DHT22;11047;47.904;8.110;2023-03-20T09:44:13;8.80;99.90
21772;DHT22;11047;47.904;8.110;2023-03-20T09:47:08;8.80;99.90
21772;DHT22;11047;47.904;8.110;2023-03-20T09:49:44;8.70;99.90
21772;DHT22;11047;47.904;8.110;2023-03-20T09:52:20;8.80;99.90
21772;DHT22;11047;47.904;8.110;2023-03-20T09:54:50;8.70;99.90
21772;DHT22;11047;47.904;8.110;2023-03-20T09:57:21;8.50;99.90
21772;DHT22;11047;47.904;8.110;2023-03-20T09:59:53;9.00;99.90
21772;DHT22;11047;47.904;8.110;2023-03-20T10:02:33;9.20;99.90
21772;DHT22;11047;47.904;8.110;2023-03-20T10:05:02;9.30;99.90
21772;DHT22;11047;47.904;8.110;2023-03-20T10:07:36;9.50;99.90
21772;DHT22;11047;47.904;8.110;2023-03-20T10:10:03;9.50;99.90
21772;DHT22;11047;47.904;8.110;2023-03-20T10:12:53;9.60;99.90
21772;DHT22;11047;47.904;8.110;2023-03-20T10:15:33;9.60;99.90
21772;DHT22;11047;47.904;8.110;2023-03-20T10:21:04;9.30;99.90
21772;DHT22;11047;47.904;8.110;2023-03-20T10:23:35;9.30;99.90
21772;DHT22;11047;47.904;8.110;2023-03-20T10:26:11;9.00;99.90
21772;DHT22;11047;47.904;8.110;2023-03-20T10:28:43;9.00;99.90
21772;DHT22;11047;47.904;8.110;2023-03-20T10:31:24;8.90;99.90
21772;DHT22;11047;47.904;8.110;2023-03-20T10:33:58;8.90;99.90
21772;DHT22;11047;47.904;8.110;2023-03-20T10:36:59;8.90;99.90
21772;DHT22;11047;47.904;8.110;2023-03-20T10:39:39;9.00;99.90
21772;DHT22;11047;47.904;8.110;2023-03-20T10:42:15;9.40;99.90
21772;DHT22;11047;47.904;8.110;2023-03-20T10:44:49;9.30;99.90
21772;DHT22;11047;47.904;8.110;2023-03-20T10:47:20;9.40;99.90
21772;DHT22;11047;47.904;8.110;2023-03-20T10:49:53;9.40;99.90
21772;DHT22;11047;47.904;8.110;2023-03-20T10:52:24;9.50;99.90
21772;DHT22;11047;47.904;8.110;2023-03-20T10:54:54;9.70;99.90
21772;DHT22;11047;47.904;8.110;2023-03-20T10:57:49;9.80;99.90
21772;DHT22;11047;47.904;8.110;2023-03-20T11:00:19;9.70;99.90
21772;DHT22;11047;47.904;8.110;2023-03-20T11:02:47;9.70;99.90
21772;DHT22;11047;47.904;8.110;2023-03-20T11:05:21;9.60;99.90
21772;DHT22;11047;47.904;8.110;2023-03-20T11:07:59;9.30;99.90
21772;DHT22;11047;47.904;8.110;2023-03-20T11:10:27;9.30;99.90
21772;DHT22;11047;47.904;8.110;2023-03-20T11:12:56;9.70;99.90
21772;DHT22;11047;47.904;8.110;2023-03-20T11:15:24;10.20;99.90
21772;DHT22;11047;47.904;8.110;2023-03-20T11:17:53;10.20;99.90
21772;DHT22;11047;47.904;8.110;2023-03-20T11:20:22;9.60;99.90
21772;DHT22;11047;47.904;8.110;2023-03-20T11:22:56;9.60;99.90
21772;DHT22;11047;47.904;8.110;2023-03-20T11:25:29;9.60;99.90
21772;DHT22;11047;47.904;8.110;2023-03-20T11:31:04;9.50;99.90
21772;DHT22;11047;47.904;8.110;2023-03-20T11:33:36;8.90;99.90
21772;DHT22;11047;47.904;8.110;2023-03-20T11:36:10;9.40;99.90
21772;DHT22;11047;47.904;8.110;2023-03-20T11:38:43;9.60;99.90
21772;DHT22;11047;47.904;8.110;2023-03-20T11:41:18;9.70;99.90
21772;DHT22;11047;47.904;8.110;2023-03-20T11:43:45;9.70;99.90
21772;DHT22;11047;47.904;8.110;2023-03-20T11:46:12;9.60;99.90
21772;DHT22;11047;47.904;8.110;2023-03-20T11:48:42;9.70;99.90
21772;DHT22;11047;47.904;8.110;2023-03-20T11:51:14;9.70;99.90
21772;DHT22;11047;47.904;8.110;2023-03-20T11:53:57;9.60;99.90
21772;DHT22;11047;47.904;8.110;2023-03-20T11:56:26;9.30;99.90
21772;DHT22;11047;47.904;8.110;2023-03-20T11:58:55;9.50;99.90
21772;DHT22;11047;47.904;8.110;2023-03-20T12:01:24;10.00;99.90
21772;DHT22;11047;47.904;8.110;2023-03-20T12:03:57;9.90;99.90
21772;DHT22;11047;47.904;8.110;2023-03-20T12:06:35;9.70;99.90
21772;DHT22;11047;47.904;8.110;2023-03-20T12:09:09;9.80;99.90
21772;DHT22;11047;47.904;8.110;2023-03-20T12:11:42;9.50;99.90
21772;DHT22;11047;47.904;8.110;2023-03-20T12:14:17;9.40;99.90
21772;DHT22;11047;47.904;8.110;2023-03-20T12:16:48;9.60;99.90
21772;DHT22;11047;47.904;8.110;2023-03-20T12:19:20;9.80;99.90
21772;DHT22;11047;47.904;8.110;2023-03-20T12:21:54;9.70;99.90
21772;DHT22;11047;47.904;8.110;2023-03-20T12:24:32;9.80;99.90
21772;DHT22;11047;47.904;8.110;2023-03-20T12:27:13;9.80;99.90
21772;DHT22;11047;47.904;8.110;2023-03-20T12:29:46;9.80;99.90
21772;DHT22;11047;47.904;8.110;2023-03-20T12:32:17;9.60;99.90
21772;DHT22;11047;47.904;8.110;2023-03-20T12:34:48;9.70;99.90
21772;DHT22;11047;47.904;8.110;2023-03-20T12:37:16;9.60;99.90
21772;DHT22;11047;47.904;8.110;2023-03-20T12:39:49;9.70;99.90
21772;DHT22;11047;47.904;8.110;2023-03-20T12:42:20;9.80;99.90
21772;DHT22;11047;47.904;8.110;2023-03-20T12:44:51;9.70;99.90
21772;DHT22;11047;47.904;8.110;2023-03-20T12:47:31;9.60;99.90
21772;DHT22;11047;47.904;8.110;2023-03-20T12:50:09;10.20;99.90
21772;DHT22;11047;47.904;8.110;2023-03-20T12:52:47;10.60;99.90
21772;DHT22;11047;47.904;8.110;2023-03-20T12:55:34;10.20;99.90
21772;DHT22;11047;47.904;8.110;2023-03-20T12:58:17;9.90;99.90
21772;DHT22;11047;47.904;8.110;2023-03-20T13:00:53;10.00;99.90
21772;DHT22;11047;47.904;8.110;2023-03-20T13:03:45;10.20;99.90
21772;DHT22;11047;47.904;8.110;2023-03-20T13:06:21;10.50;99.90
21772;DHT22;11047;47.904;8.110;2023-03-20T13:11:53;10.20;99.90
21772;DHT22;11047;47.904;8.110;2023-03-20T13:14:25;10.30;99.90
21772;DHT22;11047;47.904;8.110;2023-03-20T13:16:56;10.30;99.90
21772;DHT22;11047;47.904;8.110;2023-03-20T13:19:29;10.50;99.90
21772;DHT22;11047;47.904;8.110;2023-03-20T13:22:03;10.60;99.90
21772;DHT22;11047;47.904;8.110;2023-03-20T13:24:36;10.90;99.90
21772;DHT22;11047;47.904;8.110;2023-03-20T13:27:14;11.00;99.90
21772;DHT22;11047;47.904;8.110;2023-03-20T13:29:50;10.80;99.90
21772;DHT22;11047;47.904;8.110;2023-03-20T13:32:25;11.00;99.90
21772;DHT22;11047;47.904;8.110;2023-03-20T13:35:05;10.80;99.90
21772;DHT22;11047;47.904;8.110;2023-03-20T13:37:36;10.90;99.90
21772;DHT22;11047;47.904;8.110;2023-03-20T13:40:12;10.80;99.90
21772;DHT22;11047;47.904;8.110;2023-03-20T13:42:48;10.80;99.90
21772;DHT22;11047;47.904;8.110;2023-03-20T13:45:33;11.00;99.90
21772;DHT22;11047;47.904;8.110;2023-03-20T13:48:32;10.90;99.90
21772;DHT22;11047;47.904;8.110;2023-03-20T13:51:07;10.60;99.90
21772;DHT22;11047;47.904;8.110;2023-03-20T13:53:47;10.30;99.90
21772;DHT22;11047;47.904;8.110;2023-03-20T13:56:25;10.40;99.90
21772;DHT22;11047;47.904;8.110;2023-03-20T14:01:55;10.70;99.90
21772;DHT22;11047;47.904;8.110;2023-03-20T14:04:26;10.80;99.90
21772;DHT22;11047;47.904;8.110;2023-03-20T14:06:54;10.80;99.90
21772;DHT22;11047;47.904;8.110;2023-03-20T14:09:26;10.80;99.90
21772;DHT22;11047;47.904;8.110;2023-03-20T14:11:55;10.40;99.90
21772;DHT22;11047;47.904;8.110;2023-03-20T14:14:27;10.30;99.90
21772;DHT22;11047;47.904;8.110;2023-03-20T14:17:17;10.20;99.90
21772;DHT22;11047;47.904;8.110;2023-03-20T14:19:45;10.30;99.90
21772;DHT22;11047;47.904;8.110;2023-03-20T14:22:15;10.10;99.90
21772;DHT22;11047;47.904;8.110;2023-03-20T14:24:50;9.90;99.90
21772;DHT22;11047;47.904;8.110;2023-03-20T14:27:20;9.80;99.90
21772;DHT22;11047;47.904;8.110;2023-03-20T14:29:49;9.90;99.90
21772;DHT22;11047;47.904;8.110;2023-03-20T14:32:32;9.80;99.90
21772;DHT22;11047;47.904;8.110;2023-03-20T14:35:28;9.80;99.90
21772;DHT22;11047;47.904;8.110;2023-03-20T14:38:20;9.90;99.90
21772;DHT22;11047;47.904;8.110;2023-03-20T14:40:55;10.00;99.90
21772;DHT22;11047;47.904;8.110;2023-03-20T14:43:42;10.10;99.90
21772;DHT22;11047;47.904;8.110;2023-03-20T14:46:23;10.00;99.90
21772;DHT22;11047;47.904;8.110;2023-03-20T14:48:53;10.10;99.90
21772;DHT22;11047;47.904;8.110;2023-03-20T14:51:26;9.90;99.90
21772;DHT22;11047;47.904;8.110;2023-03-20T14:54:17;9.90;99.90
21772;DHT22;11047;47.904;8.110;2023-03-20T14:56:44;9.90;99.90
21772;DHT22;11047;47.904;8.110;2023-03-20T14:59:11;9.90;99.90
21772;DHT22;11047;47.904;8.110;2023-03-20T15:01:44;9.90;99.90
21772;DHT22;11047;47.904;8.110;2023-03-20T15:04:30;9.70;99.90
21772;DHT22;11047;47.904;8.110;2023-03-20T15:07:01;9.80;99.90
21772;DHT22;11047;47.904;8.110;2023-03-20T15:09:30;9.60;99.90
21772;DHT22;11047;47.904;8.110;2023-03-20T15:11:59;9.60;99.90
21772;DHT22;11047;47.904;8.110;2023-03-20T15:14:35;9.50;99.90
21772;DHT22;11047;47.904;8.110;2023-03-20T15:17:17;9.40;99.90
21772;DHT22;11047;47.904;8.110;2023-03-20T15:19:44;9.30;99.90
21772;DHT22;11047;47.904;8.110;2023-03-20T15:22:15;9.50;99.90
21772;DHT22;11047;47.904;8.110;2023-03-20T15:24:51;9.60;99.90
21772;DHT22;11047;47.904;8.110;2023-03-20T15:27:32;9.70;99.90
21772;DHT22;11047;47.904;8.110;2023-03-20T15:30:10;9.70;99.90
21772;DHT22;11047;47.904;8.110;2023-03-20T15:32:41;9.60;99.90
21772;DHT22;11047;47.904;8.110;2023-03-20T15:35:10;9.60;99.90
21772;DHT22;11047;47.904;8.110;2023-03-20T15:37:39;9.50;99.90
21772;DHT22;11047;47.904;8.110;2023-03-20T15:40:11;9.50;99.90
21772;DHT22;11047;47.904;8.110;2023-03-20T15:42:39;9.50;99.90
21772;DHT22;11047;47.904;8.110;2023-03-20T15:45:20;9.50;99.90
21772;DHT22;11047;47.904;8.110;2023-03-20T15:47:48;9.50;99.90
21772;DHT22;11047;47.904;8.110;2023-03-20T15:50:15;9.50;99.90
21772;DHT22;11047;47.904;8.110;2023-03-20T15:52:45;9.30;99.90
21772;DHT22;11047;47.904;8.110;2023-03-20T15:55:19;9.20;99.90
21772;DHT22;11047;47.904;8.110;2023-03-20T15:57:47;9.50;99.90
21772;DHT22;11047;47.904;8.110;2023-03-20T16:00:18;9.20;99.90
21772;DHT22;11047;47.904;8.110;2023-03-20T16:02:45;9.10;99.90
21772;DHT22;11047;47.904;8.110;2023-03-20T16:05:16;9.20;99.90
21772;DHT22;11047;47.904;8.110;2023-03-20T16:07:43;9.20;99.90
21772;DHT22;11047;47.904;8.110;2023-03-20T16:10:18;9.20;99.90
21772;DHT22;11047;47.904;8.110;2023-03-20T16:12:47;9.10;99.90
21772;DHT22;11047;47.904;8.110;2023-03-20T16:15:15;9.20;99.90
21772;DHT22;11047;47.904;8.110;2023-03-20T16:17:43;9.20;99.90
21772;DHT22;11047;47.904;8.110;2023-03-20T16:20:15;9.30;99.90
21772;DHT22;11047;47.904;8.110;2023-03-20T16:22:43;9.10;99.90
21772;DHT22;11047;47.904;8.110;2023-03-20T16:25:13;9.00;99.90
21772;DHT22;11047;47.904;8.110;2023-03-20T16:27:41;9.00;99.90
21772;DHT22;11047;47.904;8.110;2023-03-20T16:30:14;8.90;99.90
21772;DHT22;11047;47.904;8.110;2023-03-20T16:32:43;8.90;99.90